sensor_id;sensor_type;location;lat;lon;timestamp;P1;durP1;ratioP1;P2;durP2;ratioP2
52380;SDS011;38310;52.796;6.942;2023-01-16T18:21:45;15.45;;;11.00;;
52380;SDS011;38310;52.796;6.942;2023-01-16T18:24:31;15.50;;;10.98;;
52380;SDS011;38310;52.796;6.942;2023-01-16T18:27:01;13.60;;;11.20;;
52380;SDS011;38310;52.796;6.942;2023-01-16T18:29:29;14.57;;;11.02;;
52380;SDS011;38310;52.796;6.942;2023-01-16T18:31:55;14.18;;;10.85;;
52380;SDS011;38310;52.796;6.942;2023-01-16T18:34:39;11.68;;;10.15;;
52380;SDS011;38310;52.796;6.942;2023-01-16T18:37:05;11.68;;;10.48;;
52380;SDS011;38310;52.796;6.942;2023-01-16T18:39:31;11.50;;;9.88;;
52380;SDS011;38310;52.796;6.942;2023-01-16T18:42:16;14.45;;;10.63;;
52380;SDS011;38310;52.796;6.942;2023-01-16T18:45:00;13.05;;;10.60;;
52380;SDS011;38310;52.796;6.942;2023-01-16T18:47:45;13.05;;;10.35;;
52380;SDS011;38310;52.796;6.942;2023-01-16T18:50:29;11.68;;;9.85;;
52380;SDS011;38310;52.796;6.942;2023-01-16T18:56:20;12.73;;;10.77;;
52380;SDS011;38310;52.796;6.942;2023-01-16T18:59:12;13.25;;;11.35;;
52380;SDS011;38310;52.796;6.942;2023-01-16T19:02:44;12.93;;;10.85;;
52380;SDS011;38310;52.796;6.942;2023-01-16T19:04:49;12.57;;;10.80;;
52380;SDS011;38310;52.796;6.942;2023-01-16T19:09:46;13.18;;;11.77;;
52380;SDS011;38310;52.796;6.942;2023-01-16T19:12:14;15.85;;;12.10;;
52380;SDS011;38310;52.796;6.942;2023-01-16T19:14:41;15.10;;;12.52;;
52380;SDS011;38310;52.796;6.942;2023-01-16T19:17:08;12.98;;;11.65;;
52380;SDS011;38310;52.796;6.942;2023-01-16T19:19:34;14.70;;;12.50;;
52380;SDS011;38310;52.796;6.942;2023-01-16T19:22:00;13.85;;;11.73;;
52380;SDS011;38310;52.796;6.942;2023-01-16T19:24:26;11.57;;;10.00;;
52380;SDS011;38310;52.796;6.942;2023-01-16T19:26:59;11.93;;;10.65;;
52380;SDS011;38310;52.796;6.942;2023-01-16T19:29:25;14.35;;;10.77;;
52380;SDS011;38310;52.796;6.942;2023-01-16T19:31:53;14.75;;;12.23;;
52380;SDS011;38310;52.796;6.942;2023-01-16T19:34:19;13.90;;;11.25;;
52380;SDS011;38310;52.796;6.942;2023-01-16T19:36:46;13.60;;;12.20;;
52380;SDS011;38310;52.796;6.942;2023-01-16T19:39:12;14.02;;;11.82;;
52380;SDS011;38310;52.796;6.942;2023-01-16T19:41:39;12.82;;;11.18;;
52380;SDS011;38310;52.796;6.942;2023-01-16T19:44:23;13.52;;;11.23;;
52380;SDS011;38310;52.796;6.942;2023-01-16T19:47:09;16.17;;;12.45;;
52380;SDS011;38310;52.796;6.942;2023-01-16T19:49:38;15.50;;;12.55;;
52380;SDS011;38310;52.796;6.942;2023-01-16T19:52:06;13.32;;;11.82;;
52380;SDS011;38310;52.796;6.942;2023-01-16T19:54:32;13.77;;;11.35;;
52380;SDS011;38310;52.796;6.942;2023-01-16T19:56:58;17.75;;;15.85;;
52380;SDS011;38310;52.796;6.942;2023-01-16T19:59:24;19.48;;;15.15;;
52380;SDS011;38310;52.796;6.942;2023-01-16T20:04:18;18.75;;;14.40;;
52380;SDS011;38310;52.796;6.942;2023-01-16T20:06:44;16.00;;;14.18;;
52380;SDS011;38310;52.796;6.942;2023-01-16T20:09:10;16.88;;;14.05;;
52380;SDS011;38310;52.796;6.942;2023-01-16T20:11:36;15.80;;;12.77;;
52380;SDS011;38310;52.796;6.942;2023-01-16T20:14:20;17.45;;;14.00;;
52380;SDS011;38310;52.796;6.942;2023-01-16T20:16:45;17.45;;;14.77;;
52380;SDS011;38310;52.796;6.942;2023-01-16T20:19:11;18.55;;;15.52;;
52380;SDS011;38310;52.796;6.942;2023-01-16T20:21:37;16.23;;;14.50;;
52380;SDS011;38310;52.796;6.942;2023-01-16T20:24:04;16.52;;;13.75;;
52380;SDS011;38310;52.796;6.942;2023-01-16T20:26:30;14.68;;;12.40;;
52380;SDS011;38310;52.796;6.942;2023-01-16T20:29:00;15.23;;;12.77;;
52380;SDS011;38310;52.796;6.942;2023-01-16T20:31:26;16.95;;;13.95;;
52380;SDS011;38310;52.796;6.942;2023-01-16T20:33:57;16.60;;;13.40;;
52380;SDS011;38310;52.796;6.942;2023-01-16T20:36:23;19.20;;;16.40;;
52380;SDS011;38310;52.796;6.942;2023-01-16T20:38:52;19.55;;;14.80;;
52380;SDS011;38310;52.796;6.942;2023-01-16T20:41:19;20.00;;;15.07;;
52380;SDS011;38310;52.796;6.942;2023-01-16T20:44:04;18.45;;;14.65;;
52380;SDS011;38310;52.796;6.942;2023-01-16T20:46:56;21.67;;;16.65;;
52380;SDS011;38310;52.796;6.942;2023-01-16T20:49:22;21.17;;;16.08;;
52380;SDS011;38310;52.796;6.942;2023-01-16T20:51:49;21.02;;;16.95;;
52380;SDS011;38310;52.796;6.942;2023-01-16T20:54:14;22.08;;;16.98;;
52380;SDS011;38310;52.796;6.942;2023-01-16T20:56:40;23.35;;;18.67;;
52380;SDS011;38310;52.796;6.942;2023-01-16T20:59:07;23.92;;;18.20;;
52380;SDS011;38310;52.796;6.942;2023-01-16T21:01:33;23.77;;;19.05;;
52380;SDS011;38310;52.796;6.942;2023-01-16T21:03:59;23.77;;;19.77;;
52380;SDS011;38310;52.796;6.942;2023-01-16T21:06:25;25.02;;;19.08;;
52380;SDS011;38310;52.796;6.942;2023-01-16T21:08:50;24.02;;;18.17;;
52380;SDS011;38310;52.796;6.942;2023-01-16T21:11:16;24.33;;;18.40;;
52380;SDS011;38310;52.796;6.942;2023-01-16T21:14:00;24.88;;;19.05;;
52380;SDS011;38310;52.796;6.942;2023-01-16T21:16:39;24.05;;;18.30;;
52380;SDS011;38310;52.796;6.942;2023-01-16T21:19:25;14.15;;;11.40;;
52380;SDS011;38310;52.796;6.942;2023-01-16T21:22:09;11.57;;;9.52;;
52380;SDS011;38310;52.796;6.942;2023-01-16T21:24:38;14.20;;;10.98;;
52380;SDS011;38310;52.796;6.942;2023-01-16T21:27:05;13.48;;;9.90;;
52380;SDS011;38310;52.796;6.942;2023-01-16T21:29:32;12.05;;;9.15;;
52380;SDS011;38310;52.796;6.942;2023-01-16T21:32:02;10.32;;;7.68;;
52380;SDS011;38310;52.796;6.942;2023-01-16T21:34:29;11.20;;;8.38;;
52380;SDS011;38310;52.796;6.942;2023-01-16T21:36:54;9.98;;;7.63;;
52380;SDS011;38310;52.796;6.942;2023-01-16T21:39:20;8.63;;;6.78;;
52380;SDS011;38310;52.796;6.942;2023-01-16T21:41:46;9.45;;;7.13;;
52380;SDS011;38310;52.796;6.942;2023-01-16T21:44:30;9.18;;;7.00;;
52380;SDS011;38310;52.796;6.942;2023-01-16T21:47:15;10.57;;;7.65;;
52380;SDS011;38310;52.796;6.942;2023-01-16T21:49:41;9.10;;;7.50;;
52380;SDS011;38310;52.796;6.942;2023-01-16T21:52:07;10.15;;;8.15;;
52380;SDS011;38310;52.796;6.942;2023-01-16T21:54:34;9.20;;;7.60;;
52380;SDS011;38310;52.796;6.942;2023-01-16T21:57:00;9.25;;;7.70;;
52380;SDS011;38310;52.796;6.942;2023-01-16T21:59:26;9.90;;;7.85;;
52380;SDS011;38310;52.796;6.942;2023-01-16T22:01:52;10.57;;;7.85;;
52380;SDS011;38310;52.796;6.942;2023-01-16T22:04:19;9.45;;;7.70;;
52380;SDS011;38310;52.796;6.942;2023-01-16T22:06:47;11.18;;;8.82;;
52380;SDS011;38310;52.796;6.942;2023-01-16T22:09:14;14.30;;;9.93;;
52380;SDS011;38310;52.796;6.942;2023-01-16T22:11:40;12.43;;;8.93;;
52380;SDS011;38310;52.796;6.942;2023-01-16T22:14:25;9.77;;;8.30;;
52380;SDS011;38310;52.796;6.942;2023-01-16T22:17:10;11.20;;;8.02;;
52380;SDS011;38310;52.796;6.942;2023-01-16T22:20:06;11.38;;;8.50;;
52380;SDS011;38310;52.796;6.942;2023-01-16T22:22:41;9.50;;;7.90;;
52380;SDS011;38310;52.796;6.942;2023-01-16T22:25:14;11.73;;;8.85;;
52380;SDS011;38310;52.796;6.942;2023-01-16T22:27:40;12.38;;;8.93;;
52380;SDS011;38310;52.796;6.942;2023-01-16T22:30:07;11.75;;;8.50;;
52380;SDS011;38310;52.796;6.942;2023-01-16T22:32:34;12.35;;;9.65;;
52380;SDS011;38310;52.796;6.942;2023-01-16T22:34:59;15.05;;;10.52;;
52380;SDS011;38310;52.796;6.942;2023-01-16T22:37:25;12.77;;;8.80;;
52380;SDS011;38310;52.796;6.942;2023-01-16T22:39:51;12.57;;;9.50;;
52380;SDS011;38310;52.796;6.942;2023-01-16T22:42:17;14.85;;;10.38;;
52380;SDS011;38310;52.796;6.942;2023-01-16T22:44:43;13.45;;;10.25;;
52380;SDS011;38310;52.796;6.942;2023-01-16T22:49:53;16.63;;;11.88;;
52380;SDS011;38310;52.796;6.942;2023-01-16T22:52:19;16.20;;;11.73;;
52380;SDS011;38310;52.796;6.942;2023-01-16T22:54:46;17.77;;;13.35;;
52380;SDS011;38310;52.796;6.942;2023-01-16T22:57:12;16.90;;;12.68;;
52380;SDS011;38310;52.796;6.942;2023-01-16T22:59:38;17.02;;;11.98;;
52380;SDS011;38310;52.796;6.942;2023-01-16T23:02:04;14.93;;;12.13;;
52380;SDS011;38310;52.796;6.942;2023-01-16T23:04:31;14.02;;;11.95;;
52380;SDS011;38310;52.796;6.942;2023-01-16T23:06:57;15.20;;;11.30;;
52380;SDS011;38310;52.796;6.942;2023-01-16T23:09:23;14.30;;;10.65;;
52380;SDS011;38310;52.796;6.942;2023-01-16T23:11:49;14.77;;;11.02;;
52380;SDS011;38310;52.796;6.942;2023-01-16T23:14:17;12.15;;;9.20;;
52380;SDS011;38310;52.796;6.942;2023-01-16T23:16:45;11.63;;;8.75;;
52380;SDS011;38310;52.796;6.942;2023-01-16T23:19:14;14.60;;;10.38;;
52380;SDS011;38310;52.796;6.942;2023-01-16T23:21:41;12.27;;;9.18;;
52380;SDS011;38310;52.796;6.942;2023-01-16T23:24:17;11.43;;;8.23;;
52380;SDS011;38310;52.796;6.942;2023-01-16T23:26:45;10.68;;;8.55;;
52380;SDS011;38310;52.796;6.942;2023-01-16T23:29:11;11.57;;;8.18;;
52380;SDS011;38310;52.796;6.942;2023-01-16T23:31:39;9.73;;;7.82;;
52380;SDS011;38310;52.796;6.942;2023-01-16T23:34:08;8.98;;;7.40;;
52380;SDS011;38310;52.796;6.942;2023-01-16T23:36:34;9.27;;;6.88;;
52380;SDS011;38310;52.796;6.942;2023-01-16T23:39:01;8.25;;;6.85;;
52380;SDS011;38310;52.796;6.942;2023-01-16T23:41:28;7.43;;;5.50;;
52380;SDS011;38310;52.796;6.942;2023-01-16T23:44:13;6.35;;;4.88;;
52380;SDS011;38310;52.796;6.942;2023-01-16T23:52:07;6.10;;;3.70;;
52380;SDS011;38310;52.796;6.942;2023-01-16T23:54:37;4.45;;;3.25;;
52380;SDS011;38310;52.796;6.942;2023-01-16T23:57:04;3.10;;;2.78;;
52380;SDS011;38310;52.796;6.942;2023-01-16T23:59:30;3.80;;;2.78;;
